createdAt,value
2017-09-26T00:00:07.899Z,51.25
2017-09-26T00:00:42.428Z,48.40
2017-09-26T00:01:16.149Z,44.55
2017-09-26T00:01:49.683Z,58.38
2017-09-26T00:02:24.151Z,57.22
2017-09-26T00:02:57.867Z,52.35
2017-09-26T00:03:31.985Z,51.15
2017-09-26T00:04:06.270Z,48.70
2017-09-26T00:04:39.998Z,48.00
2017-09-26T00:05:13.724Z,54.08
2017-09-26T00:05:47.453Z,55.85
2017-09-26T00:06:21.208Z,52.85
2017-09-26T00:06:54.762Z,54.17
2017-09-26T00:07:28.476Z,52.40
2017-09-26T00:08:02.187Z,50.40
2017-09-26T00:08:36.228Z,58.92
2017-09-26T00:09:09.939Z,57.90
2017-09-26T00:09:43.668Z,58.90
2017-09-26T00:10:17.041Z,61.10
2017-09-26T00:10:50.767Z,58.95
2017-09-26T00:11:25.248Z,50.72
2017-09-26T00:11:58.960Z,55.38
2017-09-26T00:12:33.104Z,60.85
2017-09-26T00:13:06.816Z,57.17
2017-09-26T00:13:40.874Z,53.25
2017-09-26T00:14:14.413Z,55.88
2017-09-26T00:14:48.125Z,53.40
2017-09-26T00:15:22.610Z,55.92
2017-09-26T00:15:56.332Z,56.30
2017-09-26T00:16:30.807Z,58.80
2017-09-26T00:17:04.525Z,59.15
2017-09-26T00:17:38.232Z,52.50
2017-09-26T00:18:11.959Z,53.40
2017-09-26T00:18:45.989Z,58.38
2017-09-26T00:19:19.715Z,59.88
2017-09-26T00:19:53.458Z,50.00
2017-09-26T00:20:27.164Z,60.88
2017-09-26T00:21:00.888Z,55.65
2017-09-26T00:21:34.601Z,57.95
2017-09-26T00:22:08.466Z,57.83
2017-09-26T00:22:42.186Z,57.38
2017-09-26T00:23:15.906Z,57.08
2017-09-26T00:23:49.952Z,56.30
2017-09-26T00:24:23.400Z,59.87
2017-09-26T00:24:57.159Z,60.17
2017-09-26T00:25:30.612Z,61.80
2017-09-26T00:26:04.340Z,61.63
2017-09-26T00:26:38.365Z,63.40
2017-09-26T00:27:11.908Z,63.42
2017-09-26T00:27:45.625Z,58.75
2017-09-26T00:28:19.508Z,61.37
2017-09-26T00:28:53.564Z,57.30
2017-09-26T00:29:28.169Z,53.45
2017-09-26T00:30:02.649Z,52.50
2017-09-26T00:30:36.367Z,57.00
2017-09-26T00:31:10.936Z,62.85
2017-09-26T00:31:44.678Z,56.60
2017-09-26T00:32:18.403Z,58.38
2017-09-26T00:32:51.957Z,63.78
2017-09-26T00:33:25.619Z,53.87
2017-09-26T00:33:59.540Z,56.25
2017-09-26T00:34:33.069Z,63.42
2017-09-26T00:35:06.597Z,62.03
2017-09-26T00:35:40.908Z,57.50
2017-09-26T00:36:17.817Z,50.53
2017-09-26T00:36:51.500Z,56.85
2017-09-26T00:37:25.038Z,55.17
2017-09-26T00:38:00.161Z,56.97
2017-09-26T00:38:34.526Z,53.85
2017-09-26T00:39:08.380Z,56.25
2017-09-26T00:39:42.672Z,61.30
2017-09-26T00:40:16.978Z,57.83
2017-09-26T00:40:50.514Z,59.70
2017-09-26T00:41:23.709Z,61.22
2017-09-26T00:41:57.076Z,51.95
2017-09-26T00:42:30.861Z,60.40
2017-09-26T00:43:04.576Z,60.25
2017-09-26T00:43:38.297Z,60.25
2017-09-26T00:44:52.185Z,57.83
2017-09-26T00:45:26.432Z,62.62
2017-09-26T00:46:01.021Z,60.33
2017-09-26T00:46:34.754Z,63.45
2017-09-26T00:47:09.586Z,64.70
2017-09-26T00:47:43.361Z,62.70
2017-09-26T00:48:17.104Z,62.10
2017-09-26T00:48:50.841Z,59.85
2017-09-26T00:49:24.721Z,60.17
2017-09-26T00:49:58.872Z,60.53
2017-09-26T00:50:31.929Z,63.80
2017-09-26T00:51:05.129Z,56.53
2017-09-26T00:51:38.184Z,58.97
2017-09-26T00:52:11.229Z,54.90
2017-09-26T00:52:44.690Z,62.30
2017-09-26T00:53:18.512Z,68.55
2017-09-26T00:53:51.730Z,61.37
2017-09-26T00:54:25.806Z,57.17
2017-09-26T00:54:59.262Z,62.37
2017-09-26T00:55:33.766Z,64.07
2017-09-26T00:56:07.973Z,59.90
2017-09-26T00:56:42.351Z,71.85
2017-09-26T00:57:15.561Z,62.53
2017-09-26T00:57:48.792Z,63.60
2017-09-26T00:58:22.336Z,60.35
2017-09-26T00:58:55.513Z,59.58
2017-09-26T00:59:29.367Z,64.82
2017-09-26T01:00:02.791Z,64.68
2017-09-26T01:00:37.938Z,56.77
2017-09-26T01:01:27.924Z,61.60
2017-09-26T01:02:01.135Z,62.30
2017-09-26T01:02:34.715Z,65.05
2017-09-26T01:03:08.241Z,60.92
2017-09-26T01:03:43.352Z,70.05
2017-09-26T01:04:17.506Z,62.05
2017-09-26T01:04:55.989Z,67.25
2017-09-26T01:05:31.601Z,64.70
2017-09-26T01:06:05.617Z,62.92
2017-09-26T01:06:44.798Z,58.58
2017-09-26T01:07:25.766Z,61.95
2017-09-26T01:08:00.078Z,60.95
2017-09-26T01:08:33.280Z,67.85
2017-09-26T01:09:06.676Z,64.03
2017-09-26T01:09:43.119Z,62.93
2017-09-26T01:10:17.095Z,62.78
2017-09-26T01:10:50.831Z,66.37
2017-09-26T01:11:24.566Z,63.30
2017-09-26T01:11:58.719Z,73.47
2017-09-26T01:12:32.934Z,61.93
2017-09-26T01:13:06.317Z,65.70
2017-09-26T01:13:40.703Z,64.30
2017-09-26T01:14:14.446Z,64.10
2017-09-26T01:14:48.084Z,70.00
2017-09-26T01:15:21.780Z,67.37
2017-09-26T01:15:55.782Z,69.57
2017-09-26T01:16:29.159Z,62.15
2017-09-26T01:17:03.130Z,70.43
2017-09-26T01:17:36.662Z,69.12
2017-09-26T01:18:10.388Z,70.28
2017-09-26T01:18:44.119Z,67.97
2017-09-26T01:19:17.606Z,65.72
2017-09-26T01:19:50.796Z,69.82
2017-09-26T01:20:24.354Z,70.50
2017-09-26T01:20:57.895Z,69.65
2017-09-26T01:21:31.851Z,69.78
2017-09-26T01:22:05.092Z,62.22
2017-09-26T01:22:38.636Z,67.70
2017-09-26T01:23:12.180Z,69.28
2017-09-26T01:23:45.898Z,72.62
2017-09-26T01:24:19.611Z,66.95
2017-09-26T01:24:53.426Z,66.55
2017-09-26T01:25:27.931Z,71.18
2017-09-26T01:26:02.444Z,72.62
2017-09-26T01:26:36.924Z,69.90
2017-09-26T01:27:10.463Z,70.18
2017-09-26T01:27:44.176Z,74.15
2017-09-26T01:28:17.900Z,69.95
2017-09-26T01:28:51.466Z,77.80
2017-09-26T01:29:25.257Z,71.60
2017-09-26T01:29:58.992Z,65.53
2017-09-26T01:30:33.825Z,68.43
2017-09-26T01:31:07.554Z,67.43
2017-09-26T01:31:41.079Z,69.68
2017-09-26T01:32:15.566Z,72.05
2017-09-26T01:32:49.283Z,67.32
2017-09-26T01:33:23.028Z,68.60
2017-09-26T01:33:56.743Z,68.55
2017-09-26T01:34:30.459Z,73.82
2017-09-26T01:35:04.193Z,69.45
2017-09-26T01:35:37.947Z,73.62
2017-09-26T01:36:11.661Z,68.57
2017-09-26T01:36:45.395Z,76.50
2017-09-26T01:37:19.136Z,67.20
2017-09-26T01:37:52.847Z,72.40
2017-09-26T01:38:26.562Z,69.37
2017-09-26T01:39:00.285Z,67.03
2017-09-26T01:39:34.818Z,67.60
2017-09-26T01:40:08.558Z,67.78
2017-09-26T01:40:53.537Z,70.80
2017-09-26T01:41:28.014Z,72.95
2017-09-26T01:42:01.738Z,67.65
2017-09-26T01:42:36.232Z,70.07
2017-09-26T01:43:09.981Z,67.03
2017-09-26T01:43:43.689Z,70.95
2017-09-26T01:44:17.418Z,72.00
2017-09-26T01:44:51.897Z,67.40
2017-09-26T01:45:25.629Z,73.03
2017-09-26T01:45:59.368Z,68.80
2017-09-26T01:46:33.089Z,73.07
2017-09-26T01:47:07.572Z,67.10
2017-09-26T01:47:41.297Z,66.22
2017-09-26T01:48:15.639Z,67.32
2017-09-26T01:48:49.191Z,64.32
2017-09-26T01:49:22.471Z,65.77
2017-09-26T01:49:56.773Z,67.65
2017-09-26T01:50:31.098Z,73.72
2017-09-26T01:51:05.373Z,75.05
2017-09-26T01:51:39.743Z,71.18
2017-09-26T01:52:13.381Z,68.10
2017-09-26T01:52:47.682Z,66.90
2017-09-26T01:53:21.986Z,66.93
2017-09-26T01:53:56.290Z,68.22
2017-09-26T01:54:30.611Z,72.40
2017-09-26T01:55:04.148Z,82.53
2017-09-26T01:55:37.688Z,66.85
2017-09-26T01:56:17.011Z,72.45
2017-09-26T01:56:54.362Z,73.25
2017-09-26T01:57:28.709Z,67.03
2017-09-26T01:58:02.239Z,68.82
2017-09-26T01:58:39.755Z,74.20
2017-09-26T01:59:14.057Z,65.62
2017-09-26T01:59:48.513Z,69.93
2017-09-26T02:00:22.045Z,66.47
2017-09-26T02:00:55.600Z,75.62
2017-09-26T02:01:29.347Z,72.87
2017-09-26T02:02:03.257Z,63.30
2017-09-26T02:02:36.998Z,71.60
2017-09-26T02:03:11.480Z,73.80
2017-09-26T02:03:45.196Z,74.60
2017-09-26T02:04:19.695Z,69.65
2017-09-26T02:04:53.421Z,63.60
2017-09-26T02:05:27.148Z,71.57
2017-09-26T02:06:00.874Z,72.43
2017-09-26T02:06:36.257Z,66.25
2017-09-26T02:07:10.068Z,65.72
2017-09-26T02:07:43.794Z,63.75
2017-09-26T02:08:18.296Z,69.45
2017-09-26T02:08:52.783Z,68.60
2017-09-26T02:09:26.515Z,71.20
2017-09-26T02:10:00.234Z,65.57
2017-09-26T02:10:34.000Z,68.55
2017-09-26T02:11:07.737Z,64.95
2017-09-26T02:11:41.490Z,67.78
2017-09-26T02:12:15.020Z,62.62
2017-09-26T02:12:48.569Z,64.25
2017-09-26T02:13:22.295Z,77.95
2017-09-26T02:13:56.074Z,70.60
2017-09-26T02:14:29.801Z,65.87
2017-09-26T02:15:04.306Z,67.47
2017-09-26T02:15:38.033Z,62.15
2017-09-26T02:16:11.765Z,65.20
2017-09-26T02:16:45.829Z,69.03
2017-09-26T02:17:19.548Z,66.72
2017-09-26T02:17:53.276Z,68.43
2017-09-26T02:18:27.024Z,66.80
2017-09-26T02:19:00.765Z,62.35
2017-09-26T02:19:34.510Z,65.55
2017-09-26T02:20:08.350Z,72.62
2017-09-26T02:20:42.872Z,67.03
2017-09-26T02:21:16.592Z,70.50
2017-09-26T02:21:50.324Z,67.18
2017-09-26T02:22:24.043Z,66.12
2017-09-26T02:22:57.791Z,67.87
2017-09-26T02:23:31.511Z,66.62
2017-09-26T02:24:06.043Z,62.42
2017-09-26T02:24:39.786Z,62.65
2017-09-26T02:25:13.498Z,66.25
2017-09-26T02:25:47.988Z,67.72
2017-09-26T02:26:21.701Z,64.30
2017-09-26T02:26:56.508Z,69.57
2017-09-26T02:27:29.956Z,62.00
2017-09-26T02:28:03.671Z,61.65
2017-09-26T02:28:37.396Z,64.07
2017-09-26T02:29:11.152Z,66.30
2017-09-26T02:29:44.864Z,60.40
2017-09-26T02:30:19.168Z,71.53
2017-09-26T02:30:53.641Z,58.47
2017-09-26T02:31:27.368Z,66.20
2017-09-26T02:32:01.878Z,60.70
2017-09-26T02:32:36.420Z,70.20
2017-09-26T02:33:10.208Z,60.38
2017-09-26T02:33:43.932Z,62.45
2017-09-26T02:34:17.656Z,63.20
2017-09-26T02:34:52.137Z,64.10
2017-09-26T02:35:25.883Z,61.35
2017-09-26T02:35:59.611Z,62.85
2017-09-26T02:36:33.360Z,65.65
2017-09-26T02:37:07.120Z,66.87
2017-09-26T02:37:40.867Z,63.17
2017-09-26T02:38:14.588Z,63.15
2017-09-26T02:38:48.323Z,65.62
2017-09-26T02:39:21.757Z,66.40
2017-09-26T02:39:55.520Z,66.72
2017-09-26T02:40:29.248Z,66.30
2017-09-26T02:41:02.988Z,66.68
2017-09-26T02:41:36.728Z,71.28
2017-09-26T02:42:10.474Z,68.40
2017-09-26T02:42:44.211Z,63.55
2017-09-26T02:43:17.941Z,60.25
2017-09-26T02:43:52.423Z,57.03
2017-09-26T02:44:26.148Z,65.10
2017-09-26T02:44:59.880Z,61.97
2017-09-26T02:45:33.617Z,57.90
2017-09-26T02:46:08.109Z,55.83
2017-09-26T02:46:41.822Z,65.53
2017-09-26T02:47:15.561Z,69.25
2017-09-26T02:47:49.286Z,69.62
2017-09-26T02:48:23.813Z,60.20
2017-09-26T02:48:57.519Z,61.78
2017-09-26T02:49:31.246Z,61.80
2017-09-26T02:50:04.968Z,57.40
2017-09-26T02:50:39.864Z,63.83
2017-09-26T02:51:13.600Z,63.92
2017-09-26T02:51:47.080Z,75.77
2017-09-26T02:52:20.835Z,61.78
2017-09-26T02:52:54.692Z,68.82
2017-09-26T02:53:28.130Z,61.23
2017-09-26T02:54:02.606Z,68.90
2017-09-26T02:54:36.855Z,66.27
2017-09-26T02:55:10.224Z,64.93
2017-09-26T02:55:43.710Z,62.93
2017-09-26T02:56:18.194Z,61.15
2017-09-26T02:56:51.924Z,72.78
2017-09-26T02:57:26.078Z,61.45
2017-09-26T02:57:59.802Z,70.35
2017-09-26T02:58:34.296Z,67.28
2017-09-26T02:59:08.036Z,62.60
2017-09-26T02:59:41.806Z,64.25
2017-09-26T03:00:16.129Z,66.82
2017-09-26T03:00:49.852Z,67.18
2017-09-26T03:01:23.590Z,65.80
2017-09-26T03:01:57.034Z,69.57
2017-09-26T03:02:30.644Z,69.65
2017-09-26T03:03:04.942Z,66.32
2017-09-26T03:03:38.393Z,59.07
2017-09-26T03:04:12.124Z,75.43
2017-09-26T03:04:45.588Z,65.60
2017-09-26T03:05:19.323Z,65.30
2017-09-26T03:05:52.760Z,66.73
2017-09-26T03:06:26.993Z,61.17
2017-09-26T03:07:00.445Z,65.47
2017-09-26T03:07:34.505Z,68.80
2017-09-26T03:08:07.947Z,74.23
2017-09-26T03:08:41.661Z,69.20
2017-09-26T03:09:15.784Z,77.62
2017-09-26T03:09:49.514Z,68.82
2017-09-26T03:10:23.278Z,73.10
2017-09-26T03:10:57.013Z,70.07
2017-09-26T03:11:30.724Z,76.20
2017-09-26T03:12:05.192Z,73.90
2017-09-26T03:12:38.947Z,75.65
2017-09-26T03:13:12.676Z,78.50
2017-09-26T03:13:46.412Z,68.72
2017-09-26T03:14:20.897Z,74.93
2017-09-26T03:14:54.621Z,77.37
2017-09-26T03:15:28.333Z,77.15
2017-09-26T03:16:02.042Z,74.82
2017-09-26T03:16:35.761Z,74.47
2017-09-26T03:17:09.507Z,74.82
2017-09-26T03:17:43.269Z,77.90
2017-09-26T03:18:16.988Z,78.78
2017-09-26T03:18:50.705Z,72.93
2017-09-26T03:19:24.431Z,85.10
2017-09-26T03:19:58.965Z,85.80
2017-09-26T03:20:32.692Z,81.10
2017-09-26T03:21:06.436Z,81.32
2017-09-26T03:21:40.192Z,84.18
2017-09-26T03:22:13.943Z,78.57
2017-09-26T03:22:47.694Z,86.65
2017-09-26T03:23:22.195Z,79.62
2017-09-26T03:23:55.961Z,75.87
2017-09-26T03:24:29.684Z,82.40
2017-09-26T03:25:04.186Z,85.00
2017-09-26T03:25:38.673Z,94.80
2017-09-26T03:26:12.390Z,80.72
2017-09-26T03:26:47.005Z,81.75
2017-09-26T03:27:21.507Z,84.53
2017-09-26T03:27:55.840Z,85.60
2017-09-26T03:28:29.568Z,86.05
2017-09-26T03:29:03.295Z,84.87
2017-09-26T03:29:37.817Z,79.57
2017-09-26T03:30:12.325Z,79.30
2017-09-26T03:30:46.652Z,76.93
2017-09-26T03:31:20.205Z,88.28
2017-09-26T03:31:54.508Z,85.72
2017-09-26T03:32:29.010Z,94.13
2017-09-26T03:33:02.761Z,97.03
2017-09-26T03:33:36.293Z,78.72
2017-09-26T03:34:10.707Z,89.32
2017-09-26T03:34:45.016Z,88.93
2017-09-26T03:35:19.320Z,83.82
2017-09-26T03:35:53.829Z,87.03
2017-09-26T03:36:28.171Z,78.82
2017-09-26T03:37:01.692Z,94.53
2017-09-26T03:37:35.229Z,84.28
2017-09-26T03:38:09.124Z,88.53
2017-09-26T03:38:42.639Z,79.78
2017-09-26T03:39:16.184Z,81.82
2017-09-26T03:39:49.659Z,89.60
2017-09-26T03:40:23.404Z,83.65
2017-09-26T03:40:57.116Z,86.82
2017-09-26T03:41:30.842Z,85.25
2017-09-26T03:42:04.304Z,81.10
2017-09-26T03:42:38.813Z,83.55
2017-09-26T03:43:13.351Z,84.78
2017-09-26T03:43:47.081Z,82.32
2017-09-26T03:44:20.803Z,81.65
2017-09-26T03:44:55.329Z,83.72
2017-09-26T03:45:28.863Z,92.25
2017-09-26T03:46:02.395Z,86.28
2017-09-26T03:46:36.808Z,86.90
2017-09-26T03:47:10.533Z,85.93
2017-09-26T03:47:44.248Z,82.62
2017-09-26T03:48:17.863Z,75.32
2017-09-26T03:48:52.363Z,77.05
2017-09-26T03:49:26.095Z,78.72
2017-09-26T03:49:59.809Z,81.12
2017-09-26T03:50:33.553Z,86.78
2017-09-26T03:51:08.030Z,73.47
2017-09-26T03:51:41.754Z,78.05
2017-09-26T03:52:15.484Z,73.40
2017-09-26T03:52:48.939Z,81.10
2017-09-26T03:53:22.154Z,81.50
2017-09-26T03:53:55.697Z,74.43
2017-09-26T03:54:30.202Z,72.80
2017-09-26T03:55:04.690Z,79.12
2017-09-26T03:55:38.419Z,77.50
2017-09-26T03:56:12.152Z,80.30
2017-09-26T03:56:45.876Z,76.40
2017-09-26T03:57:20.026Z,77.12
2017-09-26T03:57:53.570Z,77.15
2017-09-26T03:58:27.535Z,78.07
2017-09-26T03:59:00.374Z,79.68
2017-09-26T03:59:33.909Z,89.07
2017-09-26T04:00:07.446Z,73.20
2017-09-26T04:00:41.418Z,77.57
2017-09-26T04:01:14.961Z,77.80
2017-09-26T04:01:48.011Z,75.68
2017-09-26T04:02:21.541Z,78.55
2017-09-26T04:02:55.548Z,77.65
2017-09-26T04:03:29.851Z,81.50
2017-09-26T04:04:03.481Z,85.97
2017-09-26T04:04:37.192Z,89.57
2017-09-26T04:05:10.910Z,77.37
2017-09-26T04:05:45.063Z,81.45
2017-09-26T04:06:17.863Z,80.57
2017-09-26T04:06:50.888Z,89.35
2017-09-26T04:07:23.921Z,73.85
2017-09-26T04:07:57.358Z,85.25
2017-09-26T04:08:30.413Z,76.37
2017-09-26T04:09:03.384Z,68.37
2017-09-26T04:09:36.845Z,69.47
2017-09-26T04:10:10.303Z,71.03
2017-09-26T04:10:44.055Z,77.35
2017-09-26T04:11:17.791Z,77.05
2017-09-26T04:11:51.501Z,78.72
2017-09-26T04:12:24.987Z,74.17
2017-09-26T04:12:59.522Z,77.00
2017-09-26T04:13:33.286Z,76.75
2017-09-26T04:14:07.030Z,74.32
2017-09-26T04:14:40.746Z,81.72
2017-09-26T04:15:14.284Z,75.72
2017-09-26T04:15:48.029Z,66.75
2017-09-26T04:16:21.749Z,66.07
2017-09-26T04:16:55.460Z,77.12
2017-09-26T04:17:29.230Z,78.32
2017-09-26T04:18:03.357Z,84.55
2017-09-26T04:18:37.448Z,78.35
2017-09-26T04:19:10.815Z,80.72
2017-09-26T04:19:45.300Z,75.87
2017-09-26T04:20:19.001Z,72.18
2017-09-26T04:20:52.394Z,68.20
2017-09-26T04:21:26.735Z,83.53
2017-09-26T04:22:00.219Z,81.30
2017-09-26T04:22:32.803Z,81.33
2017-09-26T04:23:06.523Z,79.00
2017-09-26T04:23:39.937Z,84.83
2017-09-26T04:24:13.392Z,80.30
2017-09-26T04:24:46.857Z,78.90
2017-09-26T04:25:20.583Z,72.10
2017-09-26T04:25:54.724Z,83.82
2017-09-26T04:26:28.488Z,69.82
2017-09-26T04:27:02.230Z,74.22
2017-09-26T04:27:35.602Z,80.82
2017-09-26T04:28:08.623Z,79.53
2017-09-26T04:28:43.137Z,75.47
2017-09-26T04:29:17.619Z,75.80
2017-09-26T04:29:51.072Z,86.60
2017-09-26T04:30:24.796Z,69.50
2017-09-26T04:30:58.513Z,76.10
2017-09-26T04:31:32.229Z,76.72
2017-09-26T04:32:05.699Z,74.60
2017-09-26T04:32:39.434Z,72.87
2017-09-26T04:33:13.162Z,68.93
2017-09-26T04:33:47.661Z,70.45
2017-09-26T04:34:21.463Z,75.07
2017-09-26T04:34:55.949Z,74.20
2017-09-26T04:35:29.660Z,74.90
2017-09-26T04:36:03.102Z,78.30
2017-09-26T04:36:37.317Z,77.93
2017-09-26T04:37:11.029Z,79.53
2017-09-26T04:37:45.582Z,73.30
2017-09-26T04:38:19.296Z,77.65
2017-09-26T04:38:53.044Z,76.87
2017-09-26T04:39:26.778Z,78.18
2017-09-26T04:40:00.512Z,72.32
2017-09-26T04:40:34.091Z,79.90
2017-09-26T04:41:07.817Z,75.15
2017-09-26T04:41:41.585Z,79.43
2017-09-26T04:42:15.920Z,77.45
2017-09-26T04:42:49.513Z,70.95
2017-09-26T04:43:23.306Z,71.60
2017-09-26T04:43:56.709Z,81.37
2017-09-26T04:44:30.270Z,78.07
2017-09-26T04:45:03.828Z,73.50
2017-09-26T04:45:38.334Z,77.72
2017-09-26T04:46:11.961Z,72.20
2017-09-26T04:46:46.202Z,81.93
2017-09-26T04:47:19.916Z,78.30
2017-09-26T04:47:54.409Z,79.70
2017-09-26T04:48:28.117Z,77.93
2017-09-26T04:49:01.683Z,83.60
2017-09-26T04:49:35.409Z,73.82
2017-09-26T04:50:09.699Z,70.45
2017-09-26T04:50:44.309Z,72.85
2017-09-26T04:51:18.805Z,76.82
2017-09-26T04:51:52.521Z,72.72
2017-09-26T04:52:26.248Z,70.82
2017-09-26T04:52:59.977Z,69.05
2017-09-26T04:53:33.711Z,72.40
2017-09-26T04:54:07.831Z,72.60
2017-09-26T04:54:41.560Z,73.07
2017-09-26T04:55:16.046Z,68.47
2017-09-26T04:55:50.253Z,70.20
2017-09-26T04:56:23.753Z,68.50
2017-09-26T04:56:58.572Z,70.18
2017-09-26T04:57:32.297Z,62.20
2017-09-26T04:58:06.016Z,69.87
2017-09-26T04:58:39.744Z,66.07
2017-09-26T04:59:14.311Z,70.40
2017-09-26T04:59:48.110Z,74.53
2017-09-26T05:00:21.645Z,67.20
2017-09-26T05:00:55.949Z,63.50
2017-09-26T05:01:30.261Z,66.03
2017-09-26T05:02:04.006Z,71.05
2017-09-26T05:02:37.732Z,71.75
2017-09-26T05:03:12.217Z,64.20
2017-09-26T05:03:45.932Z,69.72
2017-09-26T05:04:20.444Z,70.25
2017-09-26T05:04:54.746Z,61.15
2017-09-26T05:05:29.055Z,64.47
2017-09-26T05:06:03.535Z,63.47
2017-09-26T05:06:37.265Z,68.68
2017-09-26T05:07:10.992Z,66.03
2017-09-26T05:07:44.718Z,70.70
2017-09-26T05:08:18.281Z,60.35
2017-09-26T05:08:52.042Z,68.25
2017-09-26T05:09:25.788Z,61.60
2017-09-26T05:09:59.514Z,69.12
2017-09-26T05:10:33.068Z,70.85
2017-09-26T05:11:06.785Z,57.50
2017-09-26T05:11:40.517Z,68.55
2017-09-26T05:12:14.251Z,61.97
2017-09-26T05:12:48.561Z,68.60
2017-09-26T05:13:22.370Z,67.10
2017-09-26T05:13:56.090Z,61.50
2017-09-26T05:14:30.157Z,60.17
2017-09-26T05:15:03.726Z,60.85
2017-09-26T05:15:37.484Z,65.45
2017-09-26T05:16:11.310Z,65.60
2017-09-26T05:16:45.800Z,63.30
2017-09-26T05:17:19.548Z,69.25
2017-09-26T05:17:53.127Z,59.45
2017-09-26T05:18:26.887Z,56.53
2017-09-26T05:19:01.192Z,66.62
2017-09-26T05:19:35.701Z,62.08
2017-09-26T05:20:10.206Z,67.18
2017-09-26T05:20:44.769Z,61.70
2017-09-26T05:21:18.491Z,59.80
2017-09-26T05:21:52.205Z,62.08
2017-09-26T05:22:26.688Z,62.13
2017-09-26T05:23:00.401Z,62.10
2017-09-26T05:23:34.895Z,63.90
2017-09-26T05:24:08.607Z,59.08
2017-09-26T05:24:43.105Z,58.67
2017-09-26T05:25:17.578Z,55.38
2017-09-26T05:25:51.307Z,62.05
2017-09-26T05:26:24.775Z,61.73
2017-09-26T05:26:58.524Z,61.97
2017-09-26T05:27:32.236Z,58.13
2017-09-26T05:28:05.942Z,60.05
2017-09-26T05:28:39.665Z,60.28
2017-09-26T05:29:13.402Z,61.58
2017-09-26T05:29:47.151Z,60.78
2017-09-26T05:30:21.643Z,57.70
2017-09-26T05:30:56.128Z,61.97
2017-09-26T05:31:29.870Z,58.38
2017-09-26T05:32:03.594Z,52.80
2017-09-26T05:32:37.328Z,53.00
2017-09-26T05:33:11.812Z,51.80
2017-09-26T05:33:45.528Z,56.22
2017-09-26T05:34:20.034Z,53.13
2017-09-26T05:34:54.544Z,58.55
2017-09-26T05:35:29.040Z,59.67
2017-09-26T05:36:02.793Z,50.72
2017-09-26T05:36:36.316Z,58.47
2017-09-26T05:37:09.893Z,58.22
2017-09-26T05:37:43.629Z,59.90
2017-09-26T05:38:17.356Z,54.55
2017-09-26T05:38:51.091Z,48.80
2017-09-26T05:39:25.585Z,54.45
2017-09-26T05:39:59.344Z,54.55
2017-09-26T05:40:32.882Z,54.90
2017-09-26T05:41:07.372Z,57.00
2017-09-26T05:41:41.081Z,53.87
2017-09-26T05:42:15.596Z,49.33
2017-09-26T05:42:49.932Z,50.28
2017-09-26T05:43:23.647Z,55.35
2017-09-26T05:43:57.376Z,49.35
2017-09-26T05:44:31.118Z,50.70
2017-09-26T05:45:04.565Z,57.00
2017-09-26T05:45:38.294Z,54.13
2017-09-26T05:46:11.854Z,49.53
2017-09-26T05:46:45.604Z,55.47
2017-09-26T05:47:19.328Z,49.78
2017-09-26T05:47:53.054Z,52.30
2017-09-26T05:48:26.777Z,54.67
2017-09-26T05:49:00.500Z,55.53
2017-09-26T05:49:34.272Z,55.08
2017-09-26T05:50:08.783Z,48.65
2017-09-26T05:50:42.284Z,52.83
2017-09-26T05:51:15.747Z,46.00
2017-09-26T05:51:50.261Z,49.00
2017-09-26T05:52:24.789Z,58.45
2017-09-26T05:52:58.240Z,54.67
2017-09-26T05:53:31.696Z,55.33
2017-09-26T05:54:05.077Z,49.92
2017-09-26T05:54:38.828Z,52.03
2017-09-26T05:55:12.577Z,53.50
2017-09-26T05:55:46.293Z,54.55
2017-09-26T05:56:20.805Z,56.05
2017-09-26T05:56:55.299Z,49.97
2017-09-26T05:57:28.747Z,50.73
2017-09-26T05:58:02.491Z,52.78
2017-09-26T05:58:36.977Z,49.58
2017-09-26T05:59:10.946Z,51.00
2017-09-26T05:59:44.805Z,54.40
2017-09-26T06:00:18.556Z,55.30
2017-09-26T06:00:52.278Z,47.75
2017-09-26T06:01:25.750Z,49.10
2017-09-26T06:01:59.252Z,51.50
2017-09-26T06:02:32.981Z,51.28
2017-09-26T06:03:06.515Z,46.90
2017-09-26T06:03:41.017Z,50.28
2017-09-26T06:04:15.492Z,51.53
2017-09-26T06:04:49.221Z,48.05
2017-09-26T06:05:23.540Z,53.85
2017-09-26T06:05:58.020Z,54.53
2017-09-26T06:06:31.723Z,56.67
2017-09-26T06:07:06.209Z,48.33
2017-09-26T06:07:39.676Z,52.57
2017-09-26T06:08:13.420Z,47.62
2017-09-26T06:08:47.146Z,58.78
2017-09-26T06:09:20.889Z,51.08
2017-09-26T06:09:54.611Z,55.25
2017-09-26T06:10:28.345Z,53.85
2017-09-26T06:11:01.889Z,52.33
2017-09-26T06:11:35.169Z,52.17
2017-09-26T06:12:08.885Z,54.45
2017-09-26T06:12:42.605Z,59.60
2017-09-26T06:13:16.056Z,51.70
2017-09-26T06:13:49.090Z,60.78
2017-09-26T06:14:23.598Z,59.13
2017-09-26T06:14:58.104Z,52.20
2017-09-26T06:15:32.609Z,52.05
2017-09-26T06:16:07.103Z,52.67
2017-09-26T06:16:41.610Z,55.38
2017-09-26T06:17:15.346Z,59.25
2017-09-26T06:17:49.080Z,55.63
2017-09-26T06:18:23.326Z,50.73
2017-09-26T06:18:56.774Z,48.80
2017-09-26T06:19:30.487Z,56.15
2017-09-26T06:20:04.640Z,52.22
2017-09-26T06:20:38.712Z,54.03
2017-09-26T06:21:12.247Z,53.67
2017-09-26T06:21:45.965Z,57.95
2017-09-26T06:22:20.453Z,50.42
2017-09-26T06:22:54.601Z,49.45
2017-09-26T06:23:28.328Z,50.40
2017-09-26T06:24:01.851Z,56.35
2017-09-26T06:24:36.337Z,58.17
2017-09-26T06:25:10.045Z,51.90
2017-09-26T06:25:44.538Z,55.15
2017-09-26T06:26:18.859Z,51.40
2017-09-26T06:26:52.379Z,51.78
2017-09-26T06:27:26.090Z,57.50
2017-09-26T06:27:59.822Z,48.20
2017-09-26T06:28:33.357Z,53.47
2017-09-26T06:29:06.880Z,52.83
2017-09-26T06:29:40.591Z,50.83
2017-09-26T06:30:15.131Z,49.15
2017-09-26T06:30:48.889Z,50.80
2017-09-26T06:31:22.172Z,49.00
2017-09-26T06:31:56.473Z,57.50
2017-09-26T06:32:30.970Z,56.10
2017-09-26T06:33:05.456Z,49.28
2017-09-26T06:33:39.677Z,47.00
2017-09-26T06:34:13.211Z,47.75
2017-09-26T06:34:46.470Z,50.30
2017-09-26T06:35:20.951Z,48.75
2017-09-26T06:35:54.676Z,43.50
2017-09-26T06:36:28.414Z,44.05
2017-09-26T06:37:02.172Z,48.42
2017-09-26T06:37:35.924Z,54.50
2017-09-26T06:38:09.642Z,49.22
2017-09-26T06:38:43.098Z,47.10
2017-09-26T06:39:17.618Z,47.13
2017-09-26T06:39:51.067Z,43.27
2017-09-26T06:40:24.783Z,43.35
2017-09-26T06:40:59.306Z,46.50
2017-09-26T06:41:33.795Z,49.22
2017-09-26T06:42:07.516Z,52.05
2017-09-26T06:42:41.872Z,51.80
2017-09-26T06:43:15.597Z,45.00
2017-09-26T06:43:50.106Z,47.15
2017-09-26T06:44:24.619Z,51.88
2017-09-26T06:44:58.770Z,50.03
2017-09-26T06:45:32.158Z,49.90
2017-09-26T06:46:05.267Z,47.28
2017-09-26T06:46:38.977Z,45.85
2017-09-26T06:47:13.508Z,50.72
2017-09-26T06:47:47.225Z,47.38
2017-09-26T06:48:20.950Z,53.30
2017-09-26T06:48:55.459Z,54.42
2017-09-26T06:49:29.188Z,50.35
2017-09-26T06:50:02.725Z,47.15
2017-09-26T06:50:36.481Z,47.70
2017-09-26T06:51:10.514Z,53.45
2017-09-26T06:51:44.236Z,56.22
2017-09-26T06:52:18.738Z,52.28
2017-09-26T06:52:53.233Z,49.03
2017-09-26T06:53:26.958Z,46.42
2017-09-26T06:54:00.399Z,53.43
2017-09-26T06:54:34.220Z,44.58
2017-09-26T06:55:08.697Z,45.78
2017-09-26T06:55:42.705Z,48.80
2017-09-26T06:56:16.450Z,46.15
2017-09-26T06:56:50.173Z,48.30
2017-09-26T06:57:23.918Z,44.83
2017-09-26T06:57:57.637Z,48.35
2017-09-26T06:58:31.477Z,56.50
2017-09-26T06:59:06.758Z,46.58
2017-09-26T06:59:40.481Z,50.05
2017-09-26T07:00:14.197Z,45.58
2017-09-26T07:00:47.657Z,47.33
2017-09-26T07:01:22.180Z,47.72
2017-09-26T07:01:56.667Z,51.25
2017-09-26T07:02:30.424Z,49.15
2017-09-26T07:03:04.150Z,48.80
2017-09-26T07:03:37.607Z,47.70
2017-09-26T07:04:11.336Z,46.35
2017-09-26T07:04:45.844Z,46.50
2017-09-26T07:05:20.331Z,47.53
2017-09-26T07:05:54.041Z,49.97
2017-09-26T07:06:27.797Z,56.60
2017-09-26T07:07:01.529Z,49.45
2017-09-26T07:07:36.021Z,53.92
2017-09-26T07:08:09.758Z,48.87
2017-09-26T07:08:43.469Z,43.78
2017-09-26T07:09:17.195Z,44.83
2017-09-26T07:09:50.905Z,47.90
2017-09-26T07:10:25.441Z,52.67
2017-09-26T07:10:59.401Z,50.50
2017-09-26T07:11:33.908Z,49.47
2017-09-26T07:12:07.639Z,51.47
2017-09-26T07:12:41.354Z,53.05
2017-09-26T07:13:15.069Z,51.25
2017-09-26T07:13:48.809Z,49.15
2017-09-26T07:14:22.525Z,46.60
2017-09-26T07:14:56.749Z,47.23
2017-09-26T07:15:30.964Z,47.30
2017-09-26T07:16:04.477Z,54.03
2017-09-26T07:16:39.312Z,52.67
2017-09-26T07:17:12.787Z,56.07
2017-09-26T07:17:46.784Z,49.10